PHJH METAR and TAF | Updated Today

PHJH METAR

Kapalua Airport

Kapalua Airport (PHJH) hasn't published a METAR.
We found the following current weather conditions for Napili-Honokowai from other sources.

Kapalua Airport (PHJH) METAR

  • Weather conditions right now at PHJH:
  • Present conditions: Rain
  • Clouds: Heavy intensity rain
  • Cloud cover: 100%
  • Wind: 178 at 29kts
  • Temperature: 22.2 celsius
  • Feels like: 23 celsius
  • Pressure: 1013mb
  • Humidity: 96%


Useful to know...

PHJH TAF

Kapalua Airport

PHJH 052340Z 0600/0624 22011KT 3SM SHRA BR SCT010 BKN025 OVC030 AMD NOT SKED AFT 060400
Observation time: 8:59 hr. ago
Need help? Read our tutorial on how to read TAFs or read the parsed version below.

Parsed version of TAF for Kapalua Airport (PHJH)

  • From 06 December at 00:00 UTC, to day 06 of the month at 24:00 UTC
  • Clouds: Scattered at 305 meters; broken sky at 762 meters; overcast sky at 914 meters
  • Visibility: 4828 meters
  • Wind: 220 degrees at 11
  • Other: Showers of rain; mist